createdAt,value
2022-07-29T00:00:25.371Z,92260.50
2022-07-29T00:03:28.173Z,92261.34
2022-07-29T00:06:31.227Z,92255.13
2022-07-29T00:09:50.663Z,92259.25
2022-07-29T00:12:55.288Z,92262.78
2022-07-29T00:15:58.602Z,92258.81
2022-07-29T00:19:07.968Z,92264.91
2022-07-29T00:22:11.102Z,92260.91
2022-07-29T00:25:14.860Z,92258.88
2022-07-29T00:28:17.906Z,92261.03
2022-07-29T00:31:21.011Z,92255.22
2022-07-29T00:34:42.573Z,92261.88
2022-07-29T00:37:46.009Z,92259.31
2022-07-29T00:40:50.020Z,92258.69
2022-07-29T00:43:53.082Z,92261.00
2022-07-29T00:46:56.199Z,92267.16
2022-07-29T00:49:59.535Z,92259.84
2022-07-29T00:53:03.232Z,92255.50
2022-07-29T00:56:06.456Z,92255.59
2022-07-29T00:59:09.514Z,92250.06
2022-07-29T01:02:13.154Z,92253.25
2022-07-29T01:05:19.635Z,92248.38
2022-07-29T01:08:23.228Z,92248.66
2022-07-29T01:11:26.795Z,92255.00
2022-07-29T01:14:30.609Z,92255.56
2022-07-29T01:17:36.506Z,92260.41
2022-07-29T01:21:02.754Z,92258.28
2022-07-29T01:24:28.878Z,92256.13
2022-07-29T01:27:53.196Z,92260.06
2022-07-29T01:30:57.426Z,92252.44
2022-07-29T01:34:07.172Z,92254.31
2022-07-29T01:37:31.551Z,92254.84
2022-07-29T01:40:40.269Z,92251.81
2022-07-29T01:43:57.920Z,92257.38
2022-07-29T01:47:07.935Z,92253.00
2022-07-29T01:50:15.048Z,92243.72
2022-07-29T01:53:34.806Z,92247.84
2022-07-29T01:56:45.431Z,92241.31
2022-07-29T01:59:50.460Z,92238.19
2022-07-29T02:02:55.921Z,92238.84
2022-07-29T02:06:00.670Z,92238.03
2022-07-29T02:09:05.238Z,92235.03
2022-07-29T02:12:13.362Z,92226.34
2022-07-29T02:15:18.420Z,92230.44
2022-07-29T02:18:24.386Z,92229.84
2022-07-29T02:21:28.898Z,92224.44
2022-07-29T02:24:32.817Z,92230.44
2022-07-29T02:27:36.516Z,92230.59
2022-07-29T02:30:43.742Z,92221.31
2022-07-29T02:33:47.945Z,92222.72
2022-07-29T02:36:52.016Z,92218.59
2022-07-29T02:39:57.411Z,92229.50
2022-07-29T02:43:01.045Z,92219.06
2022-07-29T02:46:12.794Z,92218.28
2022-07-29T02:49:39.202Z,92220.78
2022-07-29T02:52:49.480Z,92218.59
2022-07-29T02:56:12.321Z,92218.63
2022-07-29T02:59:19.347Z,92211.66
2022-07-29T03:02:23.310Z,92220.47
2022-07-29T03:05:27.421Z,92221.41
2022-07-29T03:08:31.621Z,92221.88
2022-07-29T03:11:45.951Z,92213.34
2022-07-29T03:14:54.142Z,92218.53
2022-07-29T03:17:58.156Z,92208.97
2022-07-29T03:21:01.289Z,92203.78
2022-07-29T03:24:08.267Z,92200.66
2022-07-29T03:27:15.218Z,92191.28
2022-07-29T03:30:22.349Z,92190.66
2022-07-29T03:33:25.641Z,92197.41
2022-07-29T03:36:28.721Z,92187.31
2022-07-29T03:39:35.750Z,92189.53
2022-07-29T03:42:41.901Z,92196.69
2022-07-29T03:45:50.054Z,92185.94
2022-07-29T03:48:57.867Z,92174.38
2022-07-29T03:52:01.713Z,92174.75
2022-07-29T03:55:05.785Z,92176.41
2022-07-29T03:58:10.127Z,92183.56
2022-07-29T04:01:14.633Z,92176.38
2022-07-29T04:04:17.749Z,92178.38
2022-07-29T04:07:21.206Z,92178.84
2022-07-29T04:10:26.337Z,92175.66
2022-07-29T04:13:35.014Z,92176.59
2022-07-29T04:16:38.079Z,92174.69
2022-07-29T04:19:41.156Z,92168.06
2022-07-29T04:22:44.172Z,92169.63
2022-07-29T04:25:47.198Z,92166.59
2022-07-29T04:28:50.296Z,92168.47
2022-07-29T04:31:53.430Z,92170.06
2022-07-29T04:34:56.519Z,92170.06
2022-07-29T04:37:59.470Z,92171.34
2022-07-29T04:41:02.459Z,92166.66
2022-07-29T04:44:07.459Z,92163.31
2022-07-29T04:47:10.854Z,92152.91
2022-07-29T04:50:14.092Z,92153.41
2022-07-29T04:53:17.854Z,92146.63
2022-07-29T04:56:20.930Z,92136.31
2022-07-29T04:59:24.118Z,92130.13
2022-07-29T05:02:27.238Z,92127.78
2022-07-29T05:05:30.361Z,92131.09
2022-07-29T05:08:33.431Z,92125.38
2022-07-29T05:11:37.076Z,92122.19
2022-07-29T05:14:40.437Z,92129.72
2022-07-29T05:17:43.492Z,92121.88
2022-07-29T05:20:46.466Z,92124.28
2022-07-29T05:23:49.497Z,92122.75
2022-07-29T05:26:52.469Z,92122.75
2022-07-29T05:29:55.878Z,92118.91
2022-07-29T05:32:58.922Z,92120.16
2022-07-29T05:36:02.026Z,92118.75
2022-07-29T05:39:05.116Z,92111.47
2022-07-29T05:42:14.099Z,92119.25
2022-07-29T05:45:17.430Z,92121.66
2022-07-29T05:48:20.401Z,92116.91
2022-07-29T05:51:23.431Z,92107.59
2022-07-29T05:54:27.267Z,92106.19
2022-07-29T05:57:30.380Z,92105.63
2022-07-29T06:00:33.377Z,92101.47
2022-07-29T06:03:36.626Z,92106.28
2022-07-29T06:06:39.701Z,92107.41
2022-07-29T06:09:42.718Z,92104.56
2022-07-29T06:12:45.784Z,92103.81
2022-07-29T06:15:48.901Z,92086.84
2022-07-29T06:18:51.931Z,92106.00
2022-07-29T06:21:55.038Z,92106.94
2022-07-29T06:24:58.200Z,92109.97
2022-07-29T06:28:01.168Z,92108.34
2022-07-29T06:31:04.427Z,92103.28
2022-07-29T06:34:08.002Z,92099.25
2022-07-29T06:37:15.795Z,92101.81
2022-07-29T06:40:37.397Z,92101.28
2022-07-29T06:43:51.918Z,92100.59
2022-07-29T06:46:56.359Z,92088.88
2022-07-29T06:49:59.358Z,92089.56
2022-07-29T06:53:02.382Z,92092.25
2022-07-29T06:56:06.791Z,92092.81
2022-07-29T06:59:10.369Z,92101.38
2022-07-29T07:02:13.405Z,92092.31
2022-07-29T07:05:16.693Z,92086.66
2022-07-29T07:08:21.049Z,92099.38
2022-07-29T07:11:24.020Z,92098.00
2022-07-29T07:14:28.315Z,92092.75
2022-07-29T07:17:31.453Z,92088.69
2022-07-29T07:20:38.005Z,92092.47
2022-07-29T07:23:41.294Z,92094.06
2022-07-29T07:26:44.530Z,92089.66
2022-07-29T07:29:47.714Z,92092.34
2022-07-29T07:32:51.070Z,92094.25
2022-07-29T07:35:54.244Z,92093.09
2022-07-29T07:38:57.410Z,92093.81
2022-07-29T07:42:00.867Z,92090.31
2022-07-29T07:45:13.640Z,92095.47
2022-07-29T07:48:17.310Z,92087.84
2022-07-29T07:51:20.626Z,92093.66
2022-07-29T07:54:23.900Z,92085.31
2022-07-29T07:57:27.487Z,92084.19
2022-07-29T08:00:30.698Z,92083.09
2022-07-29T08:03:35.076Z,92093.03
2022-07-29T08:06:38.502Z,92089.63
2022-07-29T08:09:41.710Z,92091.91
2022-07-29T08:12:44.858Z,92096.47
2022-07-29T08:15:48.326Z,92085.72
2022-07-29T08:18:51.904Z,92092.06
2022-07-29T08:21:55.974Z,92084.53
2022-07-29T08:24:59.333Z,92087.22
2022-07-29T08:28:02.518Z,92084.81
2022-07-29T08:31:05.778Z,92074.84
2022-07-29T08:34:09.238Z,92073.78
2022-07-29T08:37:12.607Z,92072.50
2022-07-29T08:40:18.786Z,92071.41
2022-07-29T08:43:22.185Z,92075.88
2022-07-29T08:46:25.692Z,92069.56
2022-07-29T08:49:31.153Z,92071.16
2022-07-29T08:52:38.774Z,92072.03
2022-07-29T08:55:46.465Z,92065.91
2022-07-29T08:58:52.211Z,92060.88
2022-07-29T09:01:56.651Z,92064.22
2022-07-29T09:05:04.356Z,92056.16
2022-07-29T09:08:07.557Z,92058.84
2022-07-29T09:11:11.672Z,92053.19
2022-07-29T09:14:15.519Z,92064.09
2022-07-29T09:17:19.443Z,92051.28
2022-07-29T09:20:27.902Z,92053.97
2022-07-29T09:23:31.028Z,92052.91
2022-07-29T09:26:36.936Z,92047.25
2022-07-29T09:29:40.683Z,92044.88
2022-07-29T09:33:02.892Z,92047.88
2022-07-29T09:36:07.037Z,92046.47
2022-07-29T09:39:10.397Z,92045.22
2022-07-29T09:42:14.008Z,92044.31
2022-07-29T09:45:33.333Z,92041.19
2022-07-29T09:48:36.698Z,92042.59
2022-07-29T09:51:40.577Z,92050.22
2022-07-29T09:54:43.801Z,92057.16
2022-07-29T09:57:49.138Z,92058.56
2022-07-29T10:00:53.776Z,92052.75
2022-07-29T10:03:57.054Z,92052.75
2022-07-29T10:07:04.720Z,92047.53
2022-07-29T10:10:09.178Z,92047.25
2022-07-29T10:13:16.748Z,92044.91
2022-07-29T10:16:20.113Z,92047.28
2022-07-29T10:19:23.629Z,92037.84
2022-07-29T10:22:52.082Z,92037.56
2022-07-29T10:25:50.131Z,92036.63
2022-07-29T10:28:53.384Z,92037.56
2022-07-29T10:32:19.768Z,92029.69
2022-07-29T10:35:52.982Z,92028.75
2022-07-29T10:39:08.101Z,92029.06
2022-07-29T10:42:20.139Z,92030.03
2022-07-29T10:45:32.973Z,92020.56
2022-07-29T10:48:36.816Z,92022.16
2022-07-29T10:51:54.188Z,92031.47
2022-07-29T10:55:00.214Z,92024.97
2022-07-29T10:58:20.139Z,92025.94
2022-07-29T11:01:38.953Z,92035.09
2022-07-29T11:04:45.677Z,92033.50
2022-07-29T11:08:20.052Z,92037.91
2022-07-29T11:11:30.062Z,92042.50
2022-07-29T11:14:54.469Z,92034.97
2022-07-29T11:18:00.370Z,92026.25
2022-07-29T11:21:03.718Z,92031.00
2022-07-29T11:27:54.798Z,92043.59
2022-07-29T11:30:58.378Z,92045.13
2022-07-29T11:38:08.889Z,92042.69
2022-07-29T11:41:27.569Z,92043.72
2022-07-29T11:45:43.218Z,92050.78
2022-07-29T11:48:32.978Z,92048.34
2022-07-29T11:51:40.629Z,92056.00
2022-07-29T11:54:58.064Z,92052.22
2022-07-29T11:58:04.097Z,92057.72
2022-07-29T12:01:07.897Z,92056.06
2022-07-29T12:04:11.708Z,92061.56
2022-07-29T12:07:01.199Z,92031.16
2022-07-29T12:07:16.801Z,92057.75
2022-07-29T12:10:29.794Z,92058.69
2022-07-29T12:13:40.947Z,92067.59
2022-07-29T12:16:44.053Z,92057.19
2022-07-29T12:19:47.473Z,92067.03
2022-07-29T12:22:55.364Z,92063.69
2022-07-29T12:26:00.392Z,92060.53
2022-07-29T12:29:04.226Z,92065.66
2022-07-29T12:32:19.705Z,92057.94
2022-07-29T12:35:23.333Z,92056.34
2022-07-29T12:38:27.240Z,92051.03
2022-07-29T12:41:31.175Z,92045.84
2022-07-29T12:44:50.699Z,92050.84
2022-07-29T12:47:54.179Z,92055.44
2022-07-29T12:51:02.924Z,92051.66
2022-07-29T12:54:12.076Z,92046.69
2022-07-29T12:57:20.289Z,92043.22
2022-07-29T13:00:25.583Z,92041.63
2022-07-29T13:03:28.843Z,92037.38
2022-07-29T13:06:49.606Z,92040.09
2022-07-29T13:09:54.425Z,92032.78
2022-07-29T13:13:12.399Z,92031.72
2022-07-29T13:16:16.083Z,92030.84
2022-07-29T13:19:19.070Z,92026.44
2022-07-29T13:22:26.295Z,92028.97
2022-07-29T13:25:32.078Z,92025.78
2022-07-29T13:28:35.793Z,92026.53
2022-07-29T13:31:38.904Z,92031.53
2022-07-29T13:34:42.385Z,92017.19
2022-07-29T13:37:45.633Z,92025.31
2022-07-29T13:40:48.914Z,92022.41
2022-07-29T13:43:52.038Z,92014.81
2022-07-29T13:46:55.188Z,92014.34
2022-07-29T13:49:58.455Z,92004.97
2022-07-29T13:53:01.594Z,92008.25
2022-07-29T13:56:07.469Z,91994.66
2022-07-29T13:59:10.681Z,91997.47
2022-07-29T14:02:15.577Z,91987.84
2022-07-29T14:05:18.922Z,91989.63
2022-07-29T14:08:22.004Z,91992.94
2022-07-29T14:11:27.181Z,91987.34
2022-07-29T14:14:31.209Z,91983.53
2022-07-29T14:17:34.340Z,91987.47
2022-07-29T14:20:38.161Z,91985.19
2022-07-29T14:23:42.390Z,91977.84
2022-07-29T14:26:47.430Z,91980.09
2022-07-29T14:29:50.979Z,91976.31
2022-07-29T14:32:54.167Z,91969.34
2022-07-29T14:35:57.298Z,91972.00
2022-07-29T14:39:04.484Z,91966.53
2022-07-29T14:42:07.767Z,91970.84
2022-07-29T14:45:11.624Z,91979.13
2022-07-29T14:48:14.773Z,91988.75
2022-07-29T14:51:17.879Z,91983.28
2022-07-29T14:54:21.049Z,91979.72
2022-07-29T14:57:24.295Z,91989.03
2022-07-29T15:00:28.331Z,91988.66
2022-07-29T15:03:31.563Z,91985.75
2022-07-29T15:06:37.948Z,91986.41
2022-07-29T15:09:49.497Z,91990.31
2022-07-29T15:12:53.103Z,91985.19
2022-07-29T15:16:00.077Z,91989.50
2022-07-29T15:19:03.396Z,92001.31
2022-07-29T15:22:06.656Z,91999.78
2022-07-29T15:25:10.394Z,92003.94
2022-07-29T15:28:13.411Z,91993.97
2022-07-29T15:31:16.535Z,92003.38
2022-07-29T15:34:21.847Z,92011.19
2022-07-29T15:37:24.899Z,92015.63
2022-07-29T15:40:27.947Z,92006.38
2022-07-29T15:43:30.995Z,92008.00
2022-07-29T15:46:52.473Z,92006.91
2022-07-29T15:49:55.756Z,92010.84
2022-07-29T15:52:58.785Z,92016.06
2022-07-29T15:56:01.806Z,92016.50
2022-07-29T15:59:04.887Z,92016.78
2022-07-29T16:02:08.176Z,92025.28
2022-07-29T16:05:11.574Z,92029.59
2022-07-29T16:08:14.739Z,92033.91
2022-07-29T16:11:17.771Z,92035.66
2022-07-29T16:14:21.357Z,92022.56
2022-07-29T16:17:24.496Z,92020.81
2022-07-29T16:20:27.643Z,92017.94
2022-07-29T16:23:31.698Z,92012.75
2022-07-29T16:26:35.747Z,92025.44
2022-07-29T16:29:38.791Z,92030.84
2022-07-29T16:32:42.211Z,92024.84
2022-07-29T16:35:45.304Z,92027.09
2022-07-29T16:38:48.457Z,92022.22
2022-07-29T16:41:51.646Z,92016.28
2022-07-29T16:44:54.715Z,92009.69
2022-07-29T16:48:00.921Z,92013.88
2022-07-29T16:51:04.532Z,92008.31
2022-07-29T16:54:09.214Z,92002.59
2022-07-29T16:57:12.442Z,91997.72
2022-07-29T17:00:17.091Z,92003.78
2022-07-29T17:03:20.196Z,92012.06
2022-07-29T17:06:23.276Z,92011.00
2022-07-29T17:09:26.405Z,92001.84
2022-07-29T17:12:29.575Z,92000.81
2022-07-29T17:15:32.648Z,92003.25
2022-07-29T17:18:39.499Z,92005.25
2022-07-29T17:21:46.774Z,91998.16
2022-07-29T17:24:52.143Z,92000.91
2022-07-29T17:28:00.594Z,92004.63
2022-07-29T17:31:04.058Z,91994.56
2022-07-29T17:34:09.322Z,92000.38
2022-07-29T17:37:13.490Z,92011.50
2022-07-29T17:40:16.551Z,92015.50
2022-07-29T17:43:19.583Z,92024.72
2022-07-29T17:46:25.310Z,92026.69
2022-07-29T17:49:28.786Z,92024.19
2022-07-29T17:52:31.800Z,92020.13
2022-07-29T17:55:34.856Z,92016.59
2022-07-29T17:58:38.897Z,92020.81
2022-07-29T18:01:42.107Z,92016.44
2022-07-29T18:04:45.177Z,92015.81
2022-07-29T18:07:54.056Z,92019.63
2022-07-29T18:10:57.105Z,92022.28
2022-07-29T18:14:02.158Z,92022.94
2022-07-29T18:17:05.598Z,92026.00
2022-07-29T18:20:09.138Z,92030.72
2022-07-29T18:23:13.044Z,92030.41
2022-07-29T18:26:16.068Z,92024.41
2022-07-29T18:29:19.082Z,92029.59
2022-07-29T18:32:28.810Z,92026.94
2022-07-29T18:35:33.199Z,92025.69
2022-07-29T18:38:36.229Z,92021.00
2022-07-29T18:41:46.149Z,92013.81
2022-07-29T18:44:53.678Z,92015.16
2022-07-29T18:47:57.756Z,92015.09
2022-07-29T18:51:00.896Z,92009.66
2022-07-29T18:54:04.040Z,92003.75
2022-07-29T18:57:54.427Z,92004.22
2022-07-29T19:00:31.141Z,92008.13
2022-07-29T19:03:35.712Z,92005.28
2022-07-29T19:06:39.417Z,92009.50
2022-07-29T19:09:49.171Z,92000.31
2022-07-29T19:12:52.765Z,91993.72
2022-07-29T19:15:55.819Z,91995.41
2022-07-29T19:18:59.060Z,91990.59
2022-07-29T19:22:02.564Z,91983.00
2022-07-29T19:25:06.009Z,91985.13
2022-07-29T19:28:09.067Z,91977.91
2022-07-29T19:31:12.165Z,91982.78
2022-07-29T19:34:15.241Z,91981.03
2022-07-29T19:37:18.211Z,91977.28
2022-07-29T19:40:21.777Z,91984.03
2022-07-29T19:43:51.590Z,91984.78
2022-07-29T19:46:48.632Z,91974.75
2022-07-29T19:49:52.128Z,91975.38
2022-07-29T19:52:55.199Z,91975.56
2022-07-29T19:55:58.243Z,91973.75
2022-07-29T19:59:01.807Z,91968.66
2022-07-29T20:02:05.089Z,91971.38
2022-07-29T20:05:08.940Z,91970.66
2022-07-29T20:08:11.957Z,91975.88
2022-07-29T20:11:15.021Z,91970.09
2022-07-29T20:14:18.683Z,91977.69
2022-07-29T20:17:22.990Z,91978.59
2022-07-29T20:20:26.687Z,91971.47
2022-07-29T20:23:33.146Z,91983.31
2022-07-29T20:26:36.788Z,91975.38
2022-07-29T20:29:40.233Z,91973.38
2022-07-29T20:32:43.340Z,91966.47
2022-07-29T20:35:47.844Z,91970.84
2022-07-29T20:38:50.834Z,91964.91
2022-07-29T20:41:53.831Z,91963.81
2022-07-29T20:44:58.469Z,91966.47
2022-07-29T20:48:01.971Z,91962.53
2022-07-29T20:51:05.044Z,91955.44
2022-07-29T20:54:09.214Z,91955.53
2022-07-29T20:57:12.261Z,91945.50
2022-07-29T21:00:15.540Z,91958.25
2022-07-29T21:03:18.974Z,91952.41
2022-07-29T21:06:21.985Z,91946.06
2022-07-29T21:09:24.936Z,91936.81
2022-07-29T21:12:29.946Z,91918.69
2022-07-29T21:15:33.162Z,91903.66
2022-07-29T21:18:38.083Z,91894.00
2022-07-29T21:21:41.104Z,91897.59
2022-07-29T21:24:44.147Z,91899.91
2022-07-29T21:28:05.281Z,91896.50
2022-07-29T21:31:13.358Z,91879.75
2022-07-29T21:34:16.575Z,91871.09
2022-07-29T21:37:19.580Z,91879.00
2022-07-29T21:40:22.743Z,91874.56
2022-07-29T21:43:27.285Z,91885.81
2022-07-29T21:46:30.357Z,91891.03
2022-07-29T21:49:33.683Z,91894.66
2022-07-29T21:52:36.727Z,91903.66
2022-07-29T21:55:40.784Z,91904.19
2022-07-29T21:58:43.967Z,91892.66
2022-07-29T22:01:47.051Z,91893.47
2022-07-29T22:04:51.114Z,91881.66
2022-07-29T22:07:56.375Z,91876.00
2022-07-29T22:11:00.046Z,91878.34
2022-07-29T22:14:03.947Z,91873.09
2022-07-29T22:17:06.981Z,91870.31
2022-07-29T22:20:10.873Z,91867.03
2022-07-29T22:23:13.952Z,91861.59
2022-07-29T22:26:17.120Z,91870.88
2022-07-29T22:29:20.510Z,91880.31
2022-07-29T22:32:23.619Z,91876.50
2022-07-29T22:35:26.759Z,91873.59
2022-07-29T22:38:29.835Z,91869.34
2022-07-29T22:41:33.045Z,91863.31
2022-07-29T22:44:36.323Z,91867.28
2022-07-29T22:47:46.286Z,91874.53
2022-07-29T22:50:52.241Z,91892.31
2022-07-29T22:53:55.306Z,91906.25
2022-07-29T22:56:58.557Z,91919.16
2022-07-29T23:00:02.918Z,91924.56
2022-07-29T23:03:05.956Z,91931.47
2022-07-29T23:06:09.086Z,91942.41
2022-07-29T23:09:12.068Z,91936.66
2022-07-29T23:12:15.106Z,91919.25
2022-07-29T23:15:18.289Z,91915.72
2022-07-29T23:18:21.494Z,91915.91
2022-07-29T23:21:25.174Z,91911.16
2022-07-29T23:24:28.227Z,91897.75
2022-07-29T23:27:31.317Z,91902.50
2022-07-29T23:30:34.381Z,91909.88
2022-07-29T23:33:37.424Z,91920.81
2022-07-29T23:36:40.508Z,91918.84
2022-07-29T23:39:43.568Z,91903.97
2022-07-29T23:42:46.785Z,91909.19
2022-07-29T23:45:49.885Z,91915.09
2022-07-29T23:48:56.893Z,91914.38
2022-07-29T23:51:59.935Z,91910.09
2022-07-29T23:55:37.297Z,91894.56
2022-07-29T23:58:26.031Z,91902.66
